createdAt,value
2019-06-26T00:01:29.154Z,22.7
2019-06-26T00:06:27.686Z,22.6
2019-06-26T00:11:28.489Z,22.6
2019-06-26T00:16:29.502Z,22.5
2019-06-26T00:21:30.732Z,22.5
2019-06-26T00:26:30.319Z,22.3
2019-06-26T00:31:28.980Z,22.3
2019-06-26T00:36:28.777Z,22.2
2019-06-26T00:41:29.173Z,22.1
2019-06-26T00:46:28.695Z,22.1
2019-06-26T00:51:28.883Z,22
2019-06-26T00:56:28.862Z,22
2019-06-26T01:01:28.786Z,21.9
2019-06-26T01:06:28.871Z,21.8
2019-06-26T01:11:29.915Z,21.8
2019-06-26T01:16:29.842Z,21.7
2019-06-26T01:21:32.626Z,21.7
2019-06-26T01:26:32.693Z,21.7
2019-06-26T01:31:32.682Z,21.6
2019-06-26T01:36:32.608Z,21.6
2019-06-26T01:41:32.670Z,21.5
2019-06-26T01:46:32.723Z,21.5
2019-06-26T01:51:32.741Z,21.5
2019-06-26T01:56:32.649Z,21.4
2019-06-26T02:01:32.666Z,21.4
2019-06-26T02:06:32.677Z,21.3
2019-06-26T02:11:32.744Z,21.3
2019-06-26T02:16:33.322Z,21.2
2019-06-26T02:21:33.602Z,21.2
2019-06-26T02:26:33.459Z,21.2
2019-06-26T02:31:34.401Z,21.1
2019-06-26T02:36:34.631Z,21.1
2019-06-26T02:41:35.586Z,21.1
2019-06-26T02:46:39.288Z,21
2019-06-26T02:51:40.703Z,21
2019-06-26T02:56:40.315Z,20.9
2019-06-26T03:01:42.214Z,20.9
2019-06-26T03:06:45.614Z,20.9
2019-06-26T03:11:45.827Z,20.8
2019-06-26T03:16:45.642Z,20.8
2019-06-26T03:21:48.376Z,20.7
2019-06-26T03:26:51.107Z,20.7
2019-06-26T03:31:51.135Z,20.6
2019-06-26T03:36:51.191Z,20.6
2019-06-26T03:41:51.496Z,20.6
2019-06-26T03:46:51.673Z,20.6
2019-06-26T03:51:51.666Z,20.6
2019-06-26T04:02:42.596Z,20.6
2019-06-26T04:07:43.124Z,20.6
2019-06-26T04:12:42.485Z,20.6
2019-06-26T04:17:42.643Z,20.6
2019-06-26T04:22:43.599Z,20.7
2019-06-26T04:27:42.499Z,20.7
2019-06-26T04:32:42.733Z,20.7
2019-06-26T04:37:42.471Z,20.8
2019-06-26T04:42:42.424Z,20.8
2019-06-26T04:47:42.671Z,20.9
2019-06-26T04:52:42.607Z,20.9
2019-06-26T04:57:42.445Z,21
2019-06-26T05:02:42.726Z,21.1
2019-06-26T05:07:43.468Z,21.2
2019-06-26T05:12:43.417Z,21.5
2019-06-26T05:17:51.703Z,21.6
2019-06-26T05:22:47.204Z,21.7
2019-06-26T05:27:49.990Z,21.8
2019-06-26T05:32:49.957Z,22.1
2019-06-26T05:37:50.056Z,22.3
2019-06-26T05:42:49.971Z,22.5
2019-06-26T05:47:50.069Z,22.6
2019-06-26T05:52:49.976Z,22.8
2019-06-26T05:57:49.943Z,22.9
2019-06-26T06:02:53.947Z,23.1
2019-06-26T06:07:50.364Z,23.3
2019-06-26T06:12:50.001Z,23.4
2019-06-26T06:17:50.116Z,23.4
2019-06-26T06:22:50.768Z,23.6
2019-06-26T06:27:51.598Z,23.7
2019-06-26T06:32:52.659Z,23.9
2019-06-26T06:37:53.856Z,24
2019-06-26T06:42:54.481Z,24.1
2019-06-26T06:48:02.943Z,24.2
2019-06-26T06:53:01.439Z,24.3
2019-06-26T06:58:06.097Z,24.5
2019-06-26T07:03:11.582Z,24.5
2019-06-26T07:08:11.825Z,24.6
2019-06-26T07:13:12.420Z,24.7
2019-06-26T07:18:14.069Z,24.8
2019-06-26T07:23:13.814Z,25
2019-06-26T07:28:17.679Z,25
2019-06-26T07:33:16.676Z,25.1
2019-06-26T07:38:18.916Z,25.2
2019-06-26T07:43:21.424Z,25.3
2019-06-26T07:48:21.830Z,25.4
2019-06-26T07:53:24.433Z,25.5
2019-06-26T07:58:28.579Z,25.7
2019-06-26T08:03:34.627Z,25.6
2019-06-26T08:08:37.851Z,25.9
2019-06-26T08:13:47.155Z,25.9
2019-06-26T08:18:51.225Z,26.1
2019-06-26T08:23:54.783Z,26.2
2019-06-26T08:28:55.511Z,26.3
2019-06-26T08:33:57.343Z,26.4
2019-06-26T08:38:57.956Z,26.6
2019-06-26T08:44:01.392Z,26.7
2019-06-26T08:49:02.379Z,26.8
2019-06-26T08:54:09.797Z,27
2019-06-26T08:59:17.405Z,27
2019-06-26T09:04:22.044Z,27.1
2019-06-26T09:09:23.194Z,27.3
2019-06-26T09:14:24.228Z,27.6
2019-06-26T09:19:24.731Z,27.7
2019-06-26T09:29:37.110Z,28.1
2019-06-26T09:34:37.957Z,28.4
2019-06-26T09:39:43.384Z,28.8
2019-06-26T09:44:47.751Z,28.8
2019-06-26T09:49:50.504Z,29.1
2019-06-26T09:54:53.357Z,29.1
2019-06-26T10:00:01.070Z,29.2
2019-06-26T10:05:03.381Z,29.7
2019-06-26T10:10:05.829Z,29.8
2019-06-26T10:15:14.389Z,30.2
2019-06-26T10:20:15.652Z,30.4
2019-06-26T10:25:17.913Z,30.6
2019-06-26T10:30:17.983Z,30.5
2019-06-26T10:35:18.704Z,30.7
2019-06-26T10:40:22.153Z,30.9
2019-06-26T10:45:22.063Z,31
2019-06-26T10:50:23.694Z,31.5
2019-06-26T10:55:24.549Z,31.4
2019-06-26T11:00:24.496Z,31.5
2019-06-26T11:05:24.526Z,31.8
2019-06-26T11:10:24.596Z,31.5
2019-06-26T11:15:28.031Z,32
2019-06-26T11:20:27.221Z,32.2
2019-06-26T11:25:35.492Z,32.2
2019-06-26T11:30:41.707Z,32.3
2019-06-26T11:35:40.776Z,32.4
2019-06-26T11:40:40.851Z,32.4
2019-06-26T11:45:40.709Z,32.5
2019-06-26T11:50:42.098Z,32.7
2019-06-26T11:55:40.694Z,32.7
2019-06-26T12:00:41.884Z,32.8
2019-06-26T12:05:43.166Z,32.4
2019-06-26T12:11:01.931Z,32.6
2019-06-26T12:15:45.336Z,33
2019-06-26T12:20:45.890Z,33.1
2019-06-26T12:25:48.799Z,33.2
2019-06-26T12:30:48.407Z,33.1
2019-06-26T12:35:48.446Z,33.3
2019-06-26T12:40:50.087Z,33.4
2019-06-26T12:45:50.824Z,33.7
2019-06-26T12:50:51.129Z,33.7
2019-06-26T12:55:51.058Z,33.6
2019-06-26T13:00:51.118Z,33.7
2019-06-26T13:05:54.423Z,33.7
2019-06-26T13:10:51.812Z,33.8
2019-06-26T13:15:53.918Z,34
2019-06-26T13:20:53.974Z,34.1
2019-06-26T13:25:58.144Z,34
2019-06-26T13:31:02.756Z,34.3
2019-06-26T13:36:05.534Z,34.2
2019-06-26T13:41:05.934Z,33.9
2019-06-26T13:46:06.342Z,34.1
2019-06-26T13:51:09.580Z,34.1
2019-06-26T13:56:07.136Z,34
2019-06-26T14:01:07.226Z,33.7
2019-06-26T14:06:07.133Z,33.9
2019-06-26T14:11:07.602Z,33.7
2019-06-26T14:16:08.399Z,33.7
2019-06-26T14:21:15.857Z,33.7
2019-06-26T14:26:08.433Z,33.7
2019-06-26T14:31:09.266Z,33.7
2019-06-26T14:36:09.179Z,33.8
2019-06-26T14:41:09.583Z,33.7
2019-06-26T14:46:09.179Z,33.7
2019-06-26T14:51:10.914Z,33.6
2019-06-26T14:56:10.927Z,33.6
2019-06-26T15:01:10.964Z,33.7
2019-06-26T15:06:16.195Z,33.5
2019-06-26T15:11:11.157Z,33.7
2019-06-26T15:16:13.197Z,33.4
2019-06-26T15:21:13.374Z,33.1
2019-06-26T15:26:13.944Z,33.1
2019-06-26T15:31:14.097Z,33.1
2019-06-26T15:36:14.461Z,33.2
2019-06-26T15:41:15.584Z,33.1
2019-06-26T15:46:18.653Z,33
2019-06-26T15:51:18.543Z,33.2
2019-06-26T15:56:22.722Z,33.1
2019-06-26T16:01:24.664Z,33.1
2019-06-26T16:06:29.525Z,32.9
2019-06-26T16:11:33.356Z,32.9
2019-06-26T16:16:45.252Z,32.7
2019-06-26T16:21:48.544Z,32.8
2019-06-26T16:26:49.881Z,32.7
2019-06-26T16:31:56.351Z,32.6
2019-06-26T16:37:03.305Z,32.6
2019-06-26T16:42:10.200Z,32.4
2019-06-26T16:47:22.099Z,32.2
2019-06-26T16:52:25.348Z,32.2
2019-06-26T16:57:35.415Z,32.2
2019-06-26T17:02:39.027Z,32.2
2019-06-26T17:07:42.188Z,32
2019-06-26T17:12:44.356Z,32
2019-06-26T17:17:59.244Z,32
2019-06-26T17:23:10.115Z,31.7
2019-06-26T17:28:26.549Z,31.4
2019-06-26T17:33:26.503Z,31.4
